sensor_id;sensor_type;location;lat;lon;timestamp;pressure;altitude;pressure_sealevel;temperature;humidity
46942;BME280;32676;52.630;4.896;2022-08-21T00:01:41;99394.66;;;17.02;76.41
46942;BME280;32676;52.630;4.896;2022-08-21T00:04:10;99395.75;;;17.00;76.43
46942;BME280;32676;52.630;4.896;2022-08-21T00:06:37;99384.44;;;16.98;76.65
46942;BME280;32676;52.630;4.896;2022-08-21T00:09:08;99375.03;;;16.94;76.58
46942;BME280;32676;52.630;4.896;2022-08-21T00:11:35;99375.28;;;16.91;76.63
46942;BME280;32676;52.630;4.896;2022-08-21T00:14:03;99377.81;;;16.92;76.88
46942;BME280;32676;52.630;4.896;2022-08-21T00:16:30;99385.66;;;16.94;76.72
46942;BME280;32676;52.630;4.896;2022-08-21T00:18:57;99387.84;;;16.88;76.79
46942;BME280;32676;52.630;4.896;2022-08-21T00:21:24;99401.31;;;16.97;76.97
46942;BME280;32676;52.630;4.896;2022-08-21T00:23:51;99420.59;;;16.99;76.64
46942;BME280;32676;52.630;4.896;2022-08-21T00:26:18;99413.63;;;16.98;76.91
46942;BME280;32676;52.630;4.896;2022-08-21T00:28:44;99400.13;;;16.89;77.01
46942;BME280;32676;52.630;4.896;2022-08-21T00:31:14;99398.19;;;16.92;76.87
46942;BME280;32676;52.630;4.896;2022-08-21T00:33:40;99380.84;;;16.87;76.94
46942;BME280;32676;52.630;4.896;2022-08-21T00:36:08;99368.56;;;16.86;76.90
46942;BME280;32676;52.630;4.896;2022-08-21T00:38:37;99361.31;;;16.77;77.15
46942;BME280;32676;52.630;4.896;2022-08-21T00:41:07;99356.72;;;16.79;77.01
46942;BME280;32676;52.630;4.896;2022-08-21T00:43:37;99334.81;;;16.66;77.27
46942;BME280;32676;52.630;4.896;2022-08-21T00:46:05;99346.38;;;16.76;77.29
46942;BME280;32676;52.630;4.896;2022-08-21T00:48:33;99355.03;;;16.78;77.66
46942;BME280;32676;52.630;4.896;2022-08-21T00:51:04;99358.06;;;16.74;77.68
46942;BME280;32676;52.630;4.896;2022-08-21T00:53:32;99361.31;;;16.77;77.57
46942;BME280;32676;52.630;4.896;2022-08-21T00:56:04;99328.56;;;16.67;77.62
46942;BME280;32676;52.630;4.896;2022-08-21T00:58:32;99337.34;;;16.67;77.79
46942;BME280;32676;52.630;4.896;2022-08-21T01:01:02;99328.78;;;16.64;77.92
46942;BME280;32676;52.630;4.896;2022-08-21T01:03:30;99330.72;;;16.62;77.89
46942;BME280;32676;52.630;4.896;2022-08-21T01:05:57;99339.88;;;16.69;77.88
46942;BME280;32676;52.630;4.896;2022-08-21T01:08:24;99321.34;;;16.58;78.00
46942;BME280;32676;52.630;4.896;2022-08-21T01:10:54;99323.00;;;16.59;78.29
46942;BME280;32676;52.630;4.896;2022-08-21T01:13:23;99327.13;;;16.63;78.15
46942;BME280;32676;52.630;4.896;2022-08-21T01:15:53;99307.38;;;16.56;78.39
46942;BME280;32676;52.630;4.896;2022-08-21T01:18:20;99310.75;;;16.58;78.59
46942;BME280;32676;52.630;4.896;2022-08-21T01:21:02;99315.06;;;16.59;78.54
46942;BME280;32676;52.630;4.896;2022-08-21T01:23:29;99324.72;;;16.60;78.45
46942;BME280;32676;52.630;4.896;2022-08-21T01:25:55;99320.63;;;16.56;78.58
46942;BME280;32676;52.630;4.896;2022-08-21T01:28:24;99331.72;;;16.61;78.93
46942;BME280;32676;52.630;4.896;2022-08-21T01:30:51;99335.56;;;16.57;78.91
46942;BME280;32676;52.630;4.896;2022-08-21T01:33:22;99339.66;;;16.61;78.67
46942;BME280;32676;52.630;4.896;2022-08-21T01:35:50;99332.19;;;16.55;78.99
46942;BME280;32676;52.630;4.896;2022-08-21T01:38:18;99333.03;;;16.55;79.27
46942;BME280;32676;52.630;4.896;2022-08-21T01:40:45;99319.34;;;16.50;78.92
46942;BME280;32676;52.630;4.896;2022-08-21T01:43:11;99314.03;;;16.50;79.30
46942;BME280;32676;52.630;4.896;2022-08-21T01:45:38;99301.84;;;16.47;79.42
46942;BME280;32676;52.630;4.896;2022-08-21T01:48:04;99288.81;;;16.44;79.26
46942;BME280;32676;52.630;4.896;2022-08-21T01:50:31;99287.41;;;16.40;79.48
46942;BME280;32676;52.630;4.896;2022-08-21T01:52:58;99269.22;;;16.36;79.30
46942;BME280;32676;52.630;4.896;2022-08-21T01:55:28;99240.94;;;16.25;79.39
46942;BME280;32676;52.630;4.896;2022-08-21T01:57:56;99258.03;;;16.32;79.69
46942;BME280;32676;52.630;4.896;2022-08-21T02:00:24;99263.34;;;16.32;79.71
46942;BME280;32676;52.630;4.896;2022-08-21T02:02:51;99242.63;;;16.26;79.66
46942;BME280;32676;52.630;4.896;2022-08-21T02:05:19;99245.38;;;16.24;79.55
46942;BME280;32676;52.630;4.896;2022-08-21T02:07:47;99252.97;;;16.29;79.79
46942;BME280;32676;52.630;4.896;2022-08-21T02:10:17;99253.22;;;16.26;79.66
46942;BME280;32676;52.630;4.896;2022-08-21T02:12:46;99259.13;;;16.29;79.71
46942;BME280;32676;52.630;4.896;2022-08-21T02:15:13;99263.59;;;16.29;79.44
46942;BME280;32676;52.630;4.896;2022-08-21T02:17:45;99266.94;;;16.31;79.53
46942;BME280;32676;52.630;4.896;2022-08-21T02:20:17;99252.38;;;16.25;79.62
46942;BME280;32676;52.630;4.896;2022-08-21T02:22:44;99258.53;;;16.26;79.70
46942;BME280;32676;52.630;4.896;2022-08-21T02:25:11;99250.84;;;16.23;79.93
46942;BME280;32676;52.630;4.896;2022-08-21T02:27:39;99241.19;;;16.22;79.93
46942;BME280;32676;52.630;4.896;2022-08-21T02:30:11;99225.69;;;16.17;79.97
46942;BME280;32676;52.630;4.896;2022-08-21T02:32:38;99215.69;;;16.09;79.98
46942;BME280;32676;52.630;4.896;2022-08-21T02:35:06;99218.09;;;16.12;80.18
46942;BME280;32676;52.630;4.896;2022-08-21T02:37:33;99213.91;;;16.10;79.95
46942;BME280;32676;52.630;4.896;2022-08-21T02:40:00;99218.09;;;16.12;80.12
46942;BME280;32676;52.630;4.896;2022-08-21T02:42:27;99224.34;;;16.11;80.38
46942;BME280;32676;52.630;4.896;2022-08-21T02:44:53;99224.34;;;16.11;80.56
46942;BME280;32676;52.630;4.896;2022-08-21T02:47:21;99224.63;;;16.08;80.62
46942;BME280;32676;52.630;4.896;2022-08-21T02:49:48;99219.78;;;16.02;80.61
46942;BME280;32676;52.630;4.896;2022-08-21T02:52:14;99226.19;;;16.00;80.41
46942;BME280;32676;52.630;4.896;2022-08-21T02:54:41;99244.84;;;16.09;80.41
46942;BME280;32676;52.630;4.896;2022-08-21T02:57:07;99257.59;;;16.16;80.31
46942;BME280;32676;52.630;4.896;2022-08-21T02:59:34;99266.25;;;16.18;80.67
46942;BME280;32676;52.630;4.896;2022-08-21T03:02:01;99268.19;;;16.16;80.27
46942;BME280;32676;52.630;4.896;2022-08-21T03:04:29;99244.84;;;16.09;80.46
46942;BME280;32676;52.630;4.896;2022-08-21T03:06:55;99233.53;;;16.07;80.64
46942;BME280;32676;52.630;4.896;2022-08-21T03:09:22;99236.16;;;16.07;80.64
46942;BME280;32676;52.630;4.896;2022-08-21T03:11:49;99210.41;;;15.98;80.92
46942;BME280;32676;52.630;4.896;2022-08-21T03:14:16;99208.00;;;15.95;80.88
46942;BME280;32676;52.630;4.896;2022-08-21T03:16:43;99216.69;;;15.97;81.04
46942;BME280;32676;52.630;4.896;2022-08-21T03:19:10;99203.94;;;15.91;81.19
46942;BME280;32676;52.630;4.896;2022-08-21T03:21:38;99227.03;;;16.00;81.36
46942;BME280;32676;52.630;4.896;2022-08-21T03:24:04;99245.34;;;16.03;81.31
46942;BME280;32676;52.630;4.896;2022-08-21T03:26:32;99230.91;;;15.96;81.28
46942;BME280;32676;52.630;4.896;2022-08-21T03:28:58;99222.00;;;15.97;81.07
46942;BME280;32676;52.630;4.896;2022-08-21T03:31:25;99226.19;;;16.00;81.21
46942;BME280;32676;52.630;4.896;2022-08-21T03:33:54;99211.63;;;15.94;81.27
46942;BME280;32676;52.630;4.896;2022-08-21T03:36:21;99216.94;;;15.94;81.58
46942;BME280;32676;52.630;4.896;2022-08-21T03:38:49;99206.81;;;15.88;81.33
46942;BME280;32676;52.630;4.896;2022-08-21T03:41:16;99210.94;;;15.92;81.35
46942;BME280;32676;52.630;4.896;2022-08-21T03:43:42;99212.84;;;15.90;81.79
46942;BME280;32676;52.630;4.896;2022-08-21T03:46:10;99191.91;;;15.87;81.86
46942;BME280;32676;52.630;4.896;2022-08-21T03:48:37;99193.25;;;15.81;81.68
46942;BME280;32676;52.630;4.896;2022-08-21T03:51:05;99208.50;;;15.89;81.82
46942;BME280;32676;52.630;4.896;2022-08-21T03:53:33;99200.34;;;15.81;81.92
46942;BME280;32676;52.630;4.896;2022-08-21T03:56:01;99196.50;;;15.85;81.44
46942;BME280;32676;52.630;4.896;2022-08-21T03:58:28;99196.50;;;15.85;82.05
46942;BME280;32676;52.630;4.896;2022-08-21T04:00:57;99193.13;;;15.83;82.07
46942;BME280;32676;52.630;4.896;2022-08-21T04:03:27;99171.19;;;15.69;81.92
46942;BME280;32676;52.630;4.896;2022-08-21T04:05:53;99172.41;;;15.77;82.07
46942;BME280;32676;52.630;4.896;2022-08-21T04:08:20;99186.38;;;15.79;82.01
46942;BME280;32676;52.630;4.896;2022-08-21T04:10:48;99185.66;;;15.77;82.17
46942;BME280;32676;52.630;4.896;2022-08-21T04:13:17;99184.72;;;15.78;82.35
46942;BME280;32676;52.630;4.896;2022-08-21T04:15:44;99193.38;;;15.80;82.33
46942;BME280;32676;52.630;4.896;2022-08-21T04:18:11;99203.97;;;15.80;82.45
46942;BME280;32676;52.630;4.896;2022-08-21T04:20:38;99190.44;;;15.71;82.30
46942;BME280;32676;52.630;4.896;2022-08-21T04:23:06;99207.81;;;15.76;82.13
46942;BME280;32676;52.630;4.896;2022-08-21T04:25:32;99217.44;;;15.77;82.58
46942;BME280;32676;52.630;4.896;2022-08-21T04:27:59;99222.25;;;15.83;82.23
46942;BME280;32676;52.630;4.896;2022-08-21T04:30:29;99223.22;;;15.82;82.57
46942;BME280;32676;52.630;4.896;2022-08-21T04:32:56;99223.22;;;15.82;82.38
46942;BME280;32676;52.630;4.896;2022-08-21T04:35:25;99221.50;;;15.81;82.35
46942;BME280;32676;52.630;4.896;2022-08-21T04:37:52;99213.13;;;15.76;82.66
46942;BME280;32676;52.630;4.896;2022-08-21T04:40:20;99245.25;;;15.82;82.56
46942;BME280;32676;52.630;4.896;2022-08-21T04:42:48;99235.97;;;15.77;82.55
46942;BME280;32676;52.630;4.896;2022-08-21T04:45:17;99241.03;;;15.80;82.46
46942;BME280;32676;52.630;4.896;2022-08-21T04:47:48;99220.56;;;15.70;82.79
46942;BME280;32676;52.630;4.896;2022-08-21T04:50:15;99242.00;;;15.79;82.98
46942;BME280;32676;52.630;4.896;2022-08-21T04:52:44;99252.59;;;15.79;83.09
46942;BME280;32676;52.630;4.896;2022-08-21T04:55:11;99255.50;;;15.76;82.76
46942;BME280;32676;52.630;4.896;2022-08-21T04:57:38;99280.38;;;15.84;82.96
46942;BME280;32676;52.630;4.896;2022-08-21T05:00:07;99308.94;;;15.92;82.78
46942;BME280;32676;52.630;4.896;2022-08-21T05:02:36;99321.94;;;15.95;82.87
46942;BME280;32676;52.630;4.896;2022-08-21T05:05:07;99324.56;;;15.95;82.62
46942;BME280;32676;52.630;4.896;2022-08-21T05:07:34;99333.50;;;15.94;82.38
46942;BME280;32676;52.630;4.896;2022-08-21T05:10:01;99357.56;;;16.02;82.21
46942;BME280;32676;52.630;4.896;2022-08-21T05:12:30;99351.81;;;15.97;82.40
46942;BME280;32676;52.630;4.896;2022-08-21T05:14:58;99381.91;;;16.07;82.40
46942;BME280;32676;52.630;4.896;2022-08-21T05:17:25;99410.72;;;16.12;82.50
46942;BME280;32676;52.630;4.896;2022-08-21T05:19:51;99423.84;;;16.14;82.58
46942;BME280;32676;52.630;4.896;2022-08-21T05:22:20;99442.84;;;16.19;82.74
46942;BME280;32676;52.630;4.896;2022-08-21T05:24:47;99444.66;;;16.18;82.74
46942;BME280;32676;52.630;4.896;2022-08-21T05:27:14;99468.19;;;16.23;83.17
46942;BME280;32676;52.630;4.896;2022-08-21T05:29:40;99488.91;;;16.29;83.03
46942;BME280;32676;52.630;4.896;2022-08-21T05:32:08;99511.19;;;16.26;83.28
46942;BME280;32676;52.630;4.896;2022-08-21T05:34:36;99546.41;;;16.40;83.26
46942;BME280;32676;52.630;4.896;2022-08-21T05:37:02;99569.88;;;16.44;83.38
46942;BME280;32676;52.630;4.896;2022-08-21T05:39:30;99604.63;;;16.53;83.41
46942;BME280;32676;52.630;4.896;2022-08-21T05:41:57;99639.59;;;16.58;83.30
46942;BME280;32676;52.630;4.896;2022-08-21T05:44:25;99674.31;;;16.66;83.33
46942;BME280;32676;52.630;4.896;2022-08-21T05:46:51;99683.75;;;16.70;83.70
46942;BME280;32676;52.630;4.896;2022-08-21T05:49:18;99718.72;;;16.75;83.51
46942;BME280;32676;52.630;4.896;2022-08-21T05:51:44;99748.50;;;16.79;83.47
46942;BME280;32676;52.630;4.896;2022-08-21T05:54:11;99754.81;;;16.78;83.55
46942;BME280;32676;52.630;4.896;2022-08-21T05:56:39;99789.47;;;16.87;83.68
46942;BME280;32676;52.630;4.896;2022-08-21T05:59:10;99813.63;;;16.96;83.50
46942;BME280;32676;52.630;4.896;2022-08-21T06:01:36;99830.38;;;16.96;83.52
46942;BME280;32676;52.630;4.896;2022-08-21T06:04:03;99880.63;;;17.11;83.44
46942;BME280;32676;52.630;4.896;2022-08-21T06:06:30;99912.91;;;17.17;83.42
46942;BME280;32676;52.630;4.896;2022-08-21T06:08:57;99952.97;;;17.25;83.42
46942;BME280;32676;52.630;4.896;2022-08-21T06:11:24;99992.13;;;17.35;83.05
46942;BME280;32676;52.630;4.896;2022-08-21T06:13:51;100035.75;;;17.43;83.16
46942;BME280;32676;52.630;4.896;2022-08-21T06:16:18;100073.56;;;17.47;82.81
46942;BME280;32676;52.630;4.896;2022-08-21T06:18:45;100109.34;;;17.54;82.62
46942;BME280;32676;52.630;4.896;2022-08-21T06:21:12;100161.44;;;17.68;82.35
46942;BME280;32676;52.630;4.896;2022-08-21T06:23:38;100218.19;;;17.80;82.36
46942;BME280;32676;52.630;4.896;2022-08-21T06:26:06;100265.19;;;17.92;82.13
46942;BME280;32676;52.630;4.896;2022-08-21T06:28:34;100300.28;;;17.97;81.90
46942;BME280;32676;52.630;4.896;2022-08-21T06:31:10;100336.81;;;18.07;81.50
46942;BME280;32676;52.630;4.896;2022-08-21T06:33:36;100357.00;;;18.09;81.35
46942;BME280;32676;52.630;4.896;2022-08-21T06:36:03;100409.13;;;18.25;81.12
46942;BME280;32676;52.630;4.896;2022-08-21T06:38:29;100453.56;;;18.35;81.05
46942;BME280;32676;52.630;4.896;2022-08-21T06:40:57;100515.81;;;18.46;80.85
46942;BME280;32676;52.630;4.896;2022-08-21T06:43:23;100558.91;;;18.51;80.66
46942;BME280;32676;52.630;4.896;2022-08-21T06:45:50;100640.13;;;18.69;80.47
46942;BME280;32676;52.630;4.896;2022-08-21T06:48:18;100726.31;;;18.94;79.99
46942;BME280;32676;52.630;4.896;2022-08-21T06:50:44;100795.34;;;19.10;79.58
46942;BME280;32676;52.630;4.896;2022-08-21T06:53:12;100845.44;;;19.17;78.50
46942;BME280;32676;52.630;4.896;2022-08-21T06:55:40;100911.75;;;19.35;78.18
46942;BME280;32676;52.630;4.896;2022-08-21T06:58:07;100964.22;;;19.47;78.00
46942;BME280;32676;52.630;4.896;2022-08-21T07:00:35;101012.41;;;19.57;77.21
46942;BME280;32676;52.630;4.896;2022-08-21T07:03:04;101065.78;;;19.70;76.98
46942;BME280;32676;52.630;4.896;2022-08-21T07:05:32;101127.50;;;19.78;76.75
46942;BME280;32676;52.630;4.896;2022-08-21T07:07:59;101144.34;;;19.79;76.84
46942;BME280;32676;52.630;4.896;2022-08-21T07:10:26;101207.78;;;20.01;76.16
46942;BME280;32676;52.630;4.896;2022-08-21T07:12:54;101244.75;;;20.07;75.81
46942;BME280;32676;52.630;4.896;2022-08-21T07:15:21;101237.69;;;20.06;75.97
46942;BME280;32676;52.630;4.896;2022-08-21T07:17:47;101220.38;;;19.99;75.50
46942;BME280;32676;52.630;4.896;2022-08-21T07:20:14;101234.06;;;20.07;75.66
46942;BME280;32676;52.630;4.896;2022-08-21T07:22:42;101272.75;;;20.14;75.79
46942;BME280;32676;52.630;4.896;2022-08-21T07:25:09;101302.44;;;20.22;76.22
46942;BME280;32676;52.630;4.896;2022-08-21T07:27:36;101330.44;;;20.29;75.94
46942;BME280;32676;52.630;4.896;2022-08-21T07:30:03;101374.47;;;20.37;76.03
46942;BME280;32676;52.630;4.896;2022-08-21T07:32:30;101421.06;;;20.45;75.45
46942;BME280;32676;52.630;4.896;2022-08-21T07:34:56;101429.72;;;20.49;75.72
46942;BME280;32676;52.630;4.896;2022-08-21T07:37:23;101457.00;;;20.54;75.78
46942;BME280;32676;52.630;4.896;2022-08-21T07:39:50;101457.19;;;20.51;75.21
46942;BME280;32676;52.630;4.896;2022-08-21T07:42:17;101470.34;;;20.54;75.51
46942;BME280;32676;52.630;4.896;2022-08-21T07:44:43;101445.00;;;20.47;75.42
46942;BME280;32676;52.630;4.896;2022-08-21T07:47:10;101491.25;;;20.62;75.47
46942;BME280;32676;52.630;4.896;2022-08-21T07:49:36;101523.78;;;20.68;75.63
46942;BME280;32676;52.630;4.896;2022-08-21T07:52:03;101573.72;;;20.81;75.67
46942;BME280;32676;52.630;4.896;2022-08-21T07:54:30;101614.25;;;20.87;75.34
46942;BME280;32676;52.630;4.896;2022-08-21T07:56:58;101659.75;;;21.00;75.06
46942;BME280;32676;52.630;4.896;2022-08-21T07:59:24;101697.56;;;21.08;74.64
46942;BME280;32676;52.630;4.896;2022-08-21T08:01:51;101734.59;;;21.15;74.32
46942;BME280;32676;52.630;4.896;2022-08-21T08:04:17;101776.78;;;21.24;74.34
46942;BME280;32676;52.630;4.896;2022-08-21T08:06:44;101824.16;;;21.36;73.75
46942;BME280;32676;52.630;4.896;2022-08-21T08:09:11;101850.50;;;21.42;73.20
46942;BME280;32676;52.630;4.896;2022-08-21T08:11:39;101892.00;;;21.50;73.46
46942;BME280;32676;52.630;4.896;2022-08-21T08:14:12;101926.19;;;21.59;73.04
46942;BME280;32676;52.630;4.896;2022-08-21T08:16:39;101968.44;;;21.68;73.01
46942;BME280;32676;52.630;4.896;2022-08-21T08:19:05;101998.44;;;21.73;71.99
46942;BME280;32676;52.630;4.896;2022-08-21T08:21:32;102016.03;;;21.77;71.88
46942;BME280;32676;52.630;4.896;2022-08-21T08:23:59;102047.63;;;21.87;71.50
46942;BME280;32676;52.630;4.896;2022-08-21T08:26:26;102078.28;;;21.95;71.84
46942;BME280;32676;52.630;4.896;2022-08-21T08:28:52;102125.06;;;22.04;71.64
46942;BME280;32676;52.630;4.896;2022-08-21T08:31:20;102163.13;;;22.09;70.67
46942;BME280;32676;52.630;4.896;2022-08-21T08:33:48;102236.84;;;22.31;69.95
46942;BME280;32676;52.630;4.896;2022-08-21T08:36:16;102290.66;;;22.42;69.63
46942;BME280;32676;52.630;4.896;2022-08-21T08:38:44;102353.16;;;22.57;68.28
46942;BME280;32676;52.630;4.896;2022-08-21T08:41:12;102436.97;;;22.75;67.00
46942;BME280;32676;52.630;4.896;2022-08-21T08:43:41;102462.84;;;22.76;65.92
46942;BME280;32676;52.630;4.896;2022-08-21T08:46:12;102518.91;;;22.95;64.74
46942;BME280;32676;52.630;4.896;2022-08-21T08:48:46;102542.69;;;23.01;63.56
46942;BME280;32676;52.630;4.896;2022-08-21T08:51:21;102569.28;;;23.06;63.31
46942;BME280;32676;52.630;4.896;2022-08-21T08:53:52;102583.28;;;23.11;63.22
46942;BME280;32676;52.630;4.896;2022-08-21T08:56:27;102562.00;;;23.08;61.95
46942;BME280;32676;52.630;4.896;2022-08-21T08:58:59;102521.34;;;22.99;61.27
46942;BME280;32676;52.630;4.896;2022-08-21T09:01:27;102468.59;;;22.84;61.24
46942;BME280;32676;52.630;4.896;2022-08-21T09:03:56;102517.69;;;23.00;60.86
46942;BME280;32676;52.630;4.896;2022-08-21T09:06:34;102567.19;;;23.11;61.02
46942;BME280;32676;52.630;4.896;2022-08-21T09:09:10;102623.75;;;23.22;59.89
46942;BME280;32676;52.630;4.896;2022-08-21T09:11:46;102708.22;;;23.47;58.88
46942;BME280;32676;52.630;4.896;2022-08-21T09:14:36;102738.50;;;23.49;57.55
46942;BME280;32676;52.630;4.896;2022-08-21T09:17:18;102689.44;;;23.47;56.83
46942;BME280;32676;52.630;4.896;2022-08-21T09:19:56;102685.00;;;23.46;57.34
46942;BME280;32676;52.630;4.896;2022-08-21T09:22:32;102631.97;;;23.35;56.61
46942;BME280;32676;52.630;4.896;2022-08-21T09:25:08;102614.25;;;23.32;55.76
46942;BME280;32676;52.630;4.896;2022-08-21T09:27:38;102621.16;;;23.36;55.75
46942;BME280;32676;52.630;4.896;2022-08-21T09:30:08;102685.44;;;23.54;55.92
46942;BME280;32676;52.630;4.896;2022-08-21T09:32:38;102716.31;;;23.61;56.16
46942;BME280;32676;52.630;4.896;2022-08-21T09:35:09;102757.72;;;23.73;56.80
46942;BME280;32676;52.630;4.896;2022-08-21T09:37:47;102794.88;;;23.81;57.52
46942;BME280;32676;52.630;4.896;2022-08-21T09:40:33;102806.31;;;23.84;56.55
46942;BME280;32676;52.630;4.896;2022-08-21T09:43:06;102848.66;;;23.95;57.04
46942;BME280;32676;52.630;4.896;2022-08-21T09:45:33;102871.53;;;24.02;56.10
46942;BME280;32676;52.630;4.896;2022-08-21T09:48:11;102836.53;;;23.88;55.11
46942;BME280;32676;52.630;4.896;2022-08-21T09:50:40;102843.13;;;23.98;55.28
46942;BME280;32676;52.630;4.896;2022-08-21T09:53:17;102864.25;;;24.04;55.48
46942;BME280;32676;52.630;4.896;2022-08-21T09:55:49;102839.47;;;23.99;54.57
46942;BME280;32676;52.630;4.896;2022-08-21T09:58:36;102866.00;;;24.05;55.39
46942;BME280;32676;52.630;4.896;2022-08-21T10:01:05;102896.84;;;24.14;54.67
46942;BME280;32676;52.630;4.896;2022-08-21T10:03:32;102874.22;;;24.02;53.96
46942;BME280;32676;52.630;4.896;2022-08-21T10:06:03;102885.41;;;24.10;54.84
46942;BME280;32676;52.630;4.896;2022-08-21T10:08:32;102905.47;;;24.19;54.23
46942;BME280;32676;52.630;4.896;2022-08-21T10:11:04;102931.13;;;24.25;53.86
46942;BME280;32676;52.630;4.896;2022-08-21T10:13:41;102939.81;;;24.30;54.79
46942;BME280;32676;52.630;4.896;2022-08-21T10:16:20;102865.47;;;24.14;54.82
46942;BME280;32676;52.630;4.896;2022-08-21T10:19:02;102852.03;;;24.14;55.23
46942;BME280;32676;52.630;4.896;2022-08-21T10:21:37;102843.97;;;24.14;54.96
46942;BME280;32676;52.630;4.896;2022-08-21T10:24:08;102875.75;;;24.22;53.88
46942;BME280;32676;52.630;4.896;2022-08-21T10:26:46;102832.38;;;24.14;55.02
46942;BME280;32676;52.630;4.896;2022-08-21T10:29:24;102766.88;;;24.01;56.55
46942;BME280;32676;52.630;4.896;2022-08-21T10:32:00;102686.34;;;23.85;56.98
46942;BME280;32676;52.630;4.896;2022-08-21T10:34:37;102624.53;;;23.70;57.27
46942;BME280;32676;52.630;4.896;2022-08-21T10:37:25;102575.72;;;23.64;58.02
46942;BME280;32676;52.630;4.896;2022-08-21T10:40:05;102577.91;;;23.57;58.18
46942;BME280;32676;52.630;4.896;2022-08-21T10:42:38;102572.19;;;23.63;57.42
46942;BME280;32676;52.630;4.896;2022-08-21T10:45:15;102520.19;;;23.50;57.62
46942;BME280;32676;52.630;4.896;2022-08-21T10:47:49;102482.81;;;23.47;57.27
46942;BME280;32676;52.630;4.896;2022-08-21T10:50:27;102482.81;;;23.47;57.36
46942;BME280;32676;52.630;4.896;2022-08-21T10:53:15;102497.00;;;23.49;56.78
46942;BME280;32676;52.630;4.896;2022-08-21T10:55:52;102514.81;;;23.50;56.72
46942;BME280;32676;52.630;4.896;2022-08-21T10:58:23;102537.47;;;23.60;57.02
46942;BME280;32676;52.630;4.896;2022-08-21T11:00:56;102529.88;;;23.52;57.27
46942;BME280;32676;52.630;4.896;2022-08-21T11:03:29;102598.25;;;23.75;57.49
46942;BME280;32676;52.630;4.896;2022-08-21T11:06:01;102627.47;;;23.82;57.29
46942;BME280;32676;52.630;4.896;2022-08-21T11:08:37;102616.19;;;23.75;56.53
46942;BME280;32676;52.630;4.896;2022-08-21T11:11:09;102618.44;;;23.83;55.35
46942;BME280;32676;52.630;4.896;2022-08-21T11:13:41;102636.13;;;23.87;56.46
46942;BME280;32676;52.630;4.896;2022-08-21T11:16:16;102611.38;;;23.82;56.48
46942;BME280;32676;52.630;4.896;2022-08-21T11:18:47;102616.53;;;23.85;56.72
46942;BME280;32676;52.630;4.896;2022-08-21T11:21:32;102625.19;;;23.90;55.65
46942;BME280;32676;52.630;4.896;2022-08-21T11:24:09;102664.13;;;23.97;55.08
46942;BME280;32676;52.630;4.896;2022-08-21T11:26:43;102662.69;;;23.91;54.63
46942;BME280;32676;52.630;4.896;2022-08-21T11:29:16;102698.78;;;24.02;54.72
46942;BME280;32676;52.630;4.896;2022-08-21T11:31:56;102706.38;;;24.09;53.56
46942;BME280;32676;52.630;4.896;2022-08-21T11:34:38;102689.66;;;24.04;53.53
46942;BME280;32676;52.630;4.896;2022-08-21T11:37:11;102728.47;;;24.14;54.62
46942;BME280;32676;52.630;4.896;2022-08-21T11:39:51;102758.41;;;24.23;55.19
46942;BME280;32676;52.630;4.896;2022-08-21T11:42:27;102753.81;;;24.25;53.87
46942;BME280;32676;52.630;4.896;2022-08-21T11:45:10;102776.88;;;24.29;54.37
46942;BME280;32676;52.630;4.896;2022-08-21T11:47:54;102794.53;;;24.33;53.19
46942;BME280;32676;52.630;4.896;2022-08-21T11:50:26;102797.03;;;24.36;52.42
46942;BME280;32676;52.630;4.896;2022-08-21T11:52:56;102778.78;;;24.27;52.23
46942;BME280;32676;52.630;4.896;2022-08-21T11:55:30;102764.75;;;24.22;52.58
46942;BME280;32676;52.630;4.896;2022-08-21T11:58:00;102799.53;;;24.39;52.73
46942;BME280;32676;52.630;4.896;2022-08-21T12:00:34;102802.97;;;24.41;53.63
46942;BME280;32676;52.630;4.896;2022-08-21T12:03:08;102773.88;;;24.33;52.27
46942;BME280;32676;52.630;4.896;2022-08-21T12:05:38;102779.00;;;24.38;52.19
46942;BME280;32676;52.630;4.896;2022-08-21T12:08:11;102772.84;;;24.36;51.54
46942;BME280;32676;52.630;4.896;2022-08-21T12:10:41;102725.22;;;24.24;51.87
46942;BME280;32676;52.630;4.896;2022-08-21T12:13:11;102720.44;;;24.29;51.35
46942;BME280;32676;52.630;4.896;2022-08-21T12:15:40;102703.56;;;24.27;51.46
46942;BME280;32676;52.630;4.896;2022-08-21T12:18:22;102692.97;;;24.24;50.62
46942;BME280;32676;52.630;4.896;2022-08-21T12:21:17;102698.94;;;24.29;51.39
46942;BME280;32676;52.630;4.896;2022-08-21T12:23:47;102777.69;;;24.45;52.19
46942;BME280;32676;52.630;4.896;2022-08-21T12:26:24;102797.09;;;24.50;51.72
46942;BME280;32676;52.630;4.896;2022-08-21T12:29:13;102820.84;;;24.58;50.87
46942;BME280;32676;52.630;4.896;2022-08-21T12:31:54;102793.38;;;24.53;50.31
46942;BME280;32676;52.630;4.896;2022-08-21T12:34:23;102772.88;;;24.50;50.72
46942;BME280;32676;52.630;4.896;2022-08-21T12:36:54;102773.75;;;24.51;50.84
46942;BME280;32676;52.630;4.896;2022-08-21T12:39:24;102743.69;;;24.44;50.81
46942;BME280;32676;52.630;4.896;2022-08-21T12:41:57;102720.66;;;24.40;51.28
46942;BME280;32676;52.630;4.896;2022-08-21T12:44:30;102742.66;;;24.47;50.54
46942;BME280;32676;52.630;4.896;2022-08-21T12:47:04;102764.66;;;24.53;50.84
46942;BME280;32676;52.630;4.896;2022-08-21T12:49:34;102726.59;;;24.45;50.14
46942;BME280;32676;52.630;4.896;2022-08-21T12:52:05;102681.50;;;24.36;49.77
46942;BME280;32676;52.630;4.896;2022-08-21T12:54:38;102691.00;;;24.42;50.01
46942;BME280;32676;52.630;4.896;2022-08-21T12:57:07;102697.22;;;24.42;49.97
46942;BME280;32676;52.630;4.896;2022-08-21T12:59:37;102675.06;;;24.39;49.35
46942;BME280;32676;52.630;4.896;2022-08-21T13:02:12;102644.22;;;24.30;49.12
46942;BME280;32676;52.630;4.896;2022-08-21T13:04:42;102623.81;;;24.27;49.04
46942;BME280;32676;52.630;4.896;2022-08-21T13:07:10;102632.53;;;24.31;49.78
46942;BME280;32676;52.630;4.896;2022-08-21T13:09:44;102640.28;;;24.36;49.16